sensor_id;sensor_type;location;lat;lon;timestamp;pressure;altitude;pressure_sealevel;temperature;humidity
24666;BME280;29726;53.532;-1.478;2023-04-08T00:01:04;101423.91;;;15.44;84.58
24666;BME280;29726;53.532;-1.478;2023-04-08T00:03:48;101419.22;;;15.41;84.73
24666;BME280;29726;53.532;-1.478;2023-04-08T00:06:32;101413.97;;;15.34;84.91
24666;BME280;29726;53.532;-1.478;2023-04-08T00:09:16;101414.63;;;15.29;85.07
24666;BME280;29726;53.532;-1.478;2023-04-08T00:12:00;101416.50;;;15.23;85.28
24666;BME280;29726;53.532;-1.478;2023-04-08T00:14:44;101411.19;;;15.25;85.42
24666;BME280;29726;53.532;-1.478;2023-04-08T00:17:28;101408.41;;;15.16;85.25
24666;BME280;29726;53.532;-1.478;2023-04-08T00:20:12;101423.72;;;15.15;85.10
24666;BME280;29726;53.532;-1.478;2023-04-08T00:22:56;101417.66;;;15.07;84.94
24666;BME280;29726;53.532;-1.478;2023-04-08T00:25:40;101420.16;;;15.05;85.32
24666;BME280;29726;53.532;-1.478;2023-04-08T00:28:24;101428.97;;;14.98;85.10
24666;BME280;29726;53.532;-1.478;2023-04-08T00:31:08;101430.22;;;14.98;85.37
24666;BME280;29726;53.532;-1.478;2023-04-08T00:33:52;101419.47;;;14.87;85.23
24666;BME280;29726;53.532;-1.478;2023-04-08T00:36:36;101426.81;;;14.85;85.10
24666;BME280;29726;53.532;-1.478;2023-04-08T00:39:20;101418.28;;;14.79;84.91
24666;BME280;29726;53.532;-1.478;2023-04-08T00:42:04;101413.75;;;14.73;84.84
24666;BME280;29726;53.532;-1.478;2023-04-08T00:44:49;101422.66;;;14.71;85.24
24666;BME280;29726;53.532;-1.478;2023-04-08T00:47:34;101416.63;;;14.64;84.99
24666;BME280;29726;53.532;-1.478;2023-04-08T00:50:19;101420.53;;;14.57;85.05
24666;BME280;29726;53.532;-1.478;2023-04-08T00:53:06;101409.44;;;14.54;85.22
24666;BME280;29726;53.532;-1.478;2023-04-08T00:55:50;101414.00;;;14.51;85.25
24666;BME280;29726;53.532;-1.478;2023-04-08T00:58:34;101425.84;;;14.46;84.83
24666;BME280;29726;53.532;-1.478;2023-04-08T01:04:31;101428.06;;;14.42;84.33
24666;BME280;29726;53.532;-1.478;2023-04-08T01:07:19;101435.06;;;14.38;84.67
24666;BME280;29726;53.532;-1.478;2023-04-08T01:10:12;101429.03;;;14.30;84.64
24666;BME280;29726;53.532;-1.478;2023-04-08T01:13:03;101441.19;;;14.27;84.52
24666;BME280;29726;53.532;-1.478;2023-04-08T01:15:47;101445.09;;;14.21;84.85
24666;BME280;29726;53.532;-1.478;2023-04-08T01:18:34;101423.72;;;14.05;84.90
24666;BME280;29726;53.532;-1.478;2023-04-08T01:21:20;101430.72;;;14.10;84.83
24666;BME280;29726;53.532;-1.478;2023-04-08T01:24:17;101430.41;;;14.08;84.84
24666;BME280;29726;53.532;-1.478;2023-04-08T01:27:05;101436.03;;;13.99;84.70
24666;BME280;29726;53.532;-1.478;2023-04-08T01:29:51;101441.97;;;14.01;84.59
24666;BME280;29726;53.532;-1.478;2023-04-08T01:32:35;101428.09;;;13.88;85.22
24666;BME280;29726;53.532;-1.478;2023-04-08T01:35:21;101439.94;;;13.92;84.90
24666;BME280;29726;53.532;-1.478;2023-04-08T01:38:10;101435.88;;;13.84;84.89
24666;BME280;29726;53.532;-1.478;2023-04-08T01:40:56;101451.63;;;13.82;84.58
24666;BME280;29726;53.532;-1.478;2023-04-08T01:43:42;101442.88;;;13.80;84.50
24666;BME280;29726;53.532;-1.478;2023-04-08T01:46:28;101439.28;;;13.70;84.37
24666;BME280;29726;53.532;-1.478;2023-04-08T01:49:14;101441.66;;;13.72;84.68
24666;BME280;29726;53.532;-1.478;2023-04-08T01:51:59;101453.00;;;13.68;84.76
24666;BME280;29726;53.532;-1.478;2023-04-08T01:54:44;101445.50;;;13.56;84.89
24666;BME280;29726;53.532;-1.478;2023-04-08T01:57:31;101438.50;;;13.52;84.49
24666;BME280;29726;53.532;-1.478;2023-04-08T02:00:20;101443.31;;;13.51;85.09
24666;BME280;29726;53.532;-1.478;2023-04-08T02:03:05;101448.28;;;13.47;84.48
24666;BME280;29726;53.532;-1.478;2023-04-08T02:05:51;101449.22;;;13.44;84.48
24666;BME280;29726;53.532;-1.478;2023-04-08T02:08:35;101448.59;;;13.40;84.42
24666;BME280;29726;53.532;-1.478;2023-04-08T02:11:19;101459.94;;;13.37;84.28
24666;BME280;29726;53.532;-1.478;2023-04-08T02:14:04;101450.59;;;13.31;84.33
24666;BME280;29726;53.532;-1.478;2023-04-08T02:16:52;101454.66;;;13.30;84.60
24666;BME280;29726;53.532;-1.478;2023-04-08T02:19:47;101446.34;;;13.18;84.40
24666;BME280;29726;53.532;-1.478;2023-04-08T02:25:58;101457.25;;;13.16;84.48
24666;BME280;29726;53.532;-1.478;2023-04-08T02:28:42;101448.97;;;13.12;84.40
24666;BME280;29726;53.532;-1.478;2023-04-08T02:31:26;101455.94;;;13.08;84.48
24666;BME280;29726;53.532;-1.478;2023-04-08T02:34:12;101455.63;;;13.06;84.83
24666;BME280;29726;53.532;-1.478;2023-04-08T02:36:57;101459.84;;;13.01;84.51
24666;BME280;29726;53.532;-1.478;2023-04-08T02:39:41;101460.91;;;12.95;84.29
24666;BME280;29726;53.532;-1.478;2023-04-08T02:42:25;101469.31;;;12.95;84.37
24666;BME280;29726;53.532;-1.478;2023-04-08T02:45:09;101473.13;;;12.88;84.06
24666;BME280;29726;53.532;-1.478;2023-04-08T02:47:53;101467.81;;;12.81;84.00
24666;BME280;29726;53.532;-1.478;2023-04-08T02:50:37;101469.97;;;12.77;84.02
24666;BME280;29726;53.532;-1.478;2023-04-08T02:53:23;101483.50;;;12.79;84.24
24666;BME280;29726;53.532;-1.478;2023-04-08T02:56:10;101474.59;;;12.71;84.05
24666;BME280;29726;53.532;-1.478;2023-04-08T02:58:54;101479.44;;;12.71;84.26
24666;BME280;29726;53.532;-1.478;2023-04-08T03:01:39;101470.06;;;12.65;84.57
24666;BME280;29726;53.532;-1.478;2023-04-08T03:04:23;101480.16;;;12.62;84.44
24666;BME280;29726;53.532;-1.478;2023-04-08T03:07:07;101479.19;;;12.56;84.30
24666;BME280;29726;53.532;-1.478;2023-04-08T03:09:52;101480.44;;;12.55;84.56
24666;BME280;29726;53.532;-1.478;2023-04-08T03:12:37;101466.03;;;12.44;84.65
24666;BME280;29726;53.532;-1.478;2023-04-08T03:15:21;101468.81;;;12.44;84.43
24666;BME280;29726;53.532;-1.478;2023-04-08T03:18:06;101479.25;;;12.44;84.20
24666;BME280;29726;53.532;-1.478;2023-04-08T03:20:50;101473.47;;;12.38;84.54
24666;BME280;29726;53.532;-1.478;2023-04-08T03:23:34;101476.38;;;12.35;84.89
24666;BME280;29726;53.532;-1.478;2023-04-08T03:26:18;101466.56;;;12.30;85.39
24666;BME280;29726;53.532;-1.478;2023-04-08T03:29:02;101467.00;;;12.29;85.53
24666;BME280;29726;53.532;-1.478;2023-04-08T03:31:46;101470.72;;;12.26;84.87
24666;BME280;29726;53.532;-1.478;2023-04-08T03:34:30;101473.78;;;12.19;84.95
24666;BME280;29726;53.532;-1.478;2023-04-08T03:37:14;101480.59;;;12.18;84.74
24666;BME280;29726;53.532;-1.478;2023-04-08T03:39:58;101492.59;;;12.18;84.64
24666;BME280;29726;53.532;-1.478;2023-04-08T03:42:42;101493.63;;;12.12;84.43
24666;BME280;29726;53.532;-1.478;2023-04-08T03:45:27;101496.41;;;12.12;84.34
24666;BME280;29726;53.532;-1.478;2023-04-08T03:48:10;101484.50;;;11.99;84.64
24666;BME280;29726;53.532;-1.478;2023-04-08T03:50:54;101496.69;;;12.05;84.81
24666;BME280;29726;53.532;-1.478;2023-04-08T03:53:38;101491.47;;;11.94;84.45
24666;BME280;29726;53.532;-1.478;2023-04-08T03:56:22;101491.47;;;11.94;84.17
24666;BME280;29726;53.532;-1.478;2023-04-08T03:59:07;101491.56;;;11.91;84.32
24666;BME280;29726;53.532;-1.478;2023-04-08T04:01:51;101488.25;;;11.83;84.05
24666;BME280;29726;53.532;-1.478;2023-04-08T04:04:36;101491.16;;;11.80;83.78
24666;BME280;29726;53.532;-1.478;2023-04-08T04:07:20;101497.19;;;11.78;84.00
24666;BME280;29726;53.532;-1.478;2023-04-08T04:10:04;101495.88;;;11.70;83.95
24666;BME280;29726;53.532;-1.478;2023-04-08T04:12:49;101495.88;;;11.70;83.87
24666;BME280;29726;53.532;-1.478;2023-04-08T04:15:37;101500.03;;;11.66;83.64
24666;BME280;29726;53.532;-1.478;2023-04-08T04:18:21;101498.94;;;11.63;83.67
24666;BME280;29726;53.532;-1.478;2023-04-08T04:21:06;101505.44;;;11.61;83.60
24666;BME280;29726;53.532;-1.478;2023-04-08T04:23:50;101500.38;;;11.56;83.54
24666;BME280;29726;53.532;-1.478;2023-04-08T04:26:34;101496.91;;;11.52;83.58
24666;BME280;29726;53.532;-1.478;2023-04-08T04:29:18;101491.97;;;11.43;83.56
24666;BME280;29726;53.532;-1.478;2023-04-08T04:32:02;101502.25;;;11.46;83.60
24666;BME280;29726;53.532;-1.478;2023-04-08T04:34:46;101500.03;;;11.41;83.83
24666;BME280;29726;53.532;-1.478;2023-04-08T04:37:30;101496.69;;;11.34;84.07
24666;BME280;29726;53.532;-1.478;2023-04-08T04:40:14;101494.34;;;11.32;84.00
24666;BME280;29726;53.532;-1.478;2023-04-08T04:42:58;101489.34;;;11.27;84.28
24666;BME280;29726;53.532;-1.478;2023-04-08T04:45:42;101477.47;;;11.11;83.95
24666;BME280;29726;53.532;-1.478;2023-04-08T04:48:28;101491.56;;;11.20;83.97
24666;BME280;29726;53.532;-1.478;2023-04-08T04:51:12;101506.22;;;11.24;83.94
24666;BME280;29726;53.532;-1.478;2023-04-08T04:53:56;101497.50;;;11.22;84.26
24666;BME280;29726;53.532;-1.478;2023-04-08T04:56:40;101502.84;;;11.16;84.19
24666;BME280;29726;53.532;-1.478;2023-04-08T04:59:24;101493.91;;;11.09;84.27
24666;BME280;29726;53.532;-1.478;2023-04-08T05:02:08;101505.41;;;11.11;84.35
24666;BME280;29726;53.532;-1.478;2023-04-08T05:04:52;101503.50;;;11.08;84.64
24666;BME280;29726;53.532;-1.478;2023-04-08T05:07:38;101510.78;;;11.05;84.81
24666;BME280;29726;53.532;-1.478;2023-04-08T05:10:22;101492.34;;;10.95;85.17
24666;BME280;29726;53.532;-1.478;2023-04-08T05:13:06;101505.06;;;10.96;84.67
24666;BME280;29726;53.532;-1.478;2023-04-08T05:15:50;101503.63;;;10.92;84.98
24666;BME280;29726;53.532;-1.478;2023-04-08T05:18:33;101515.56;;;10.92;85.02
24666;BME280;29726;53.532;-1.478;2023-04-08T05:21:18;101515.66;;;10.89;85.29
24666;BME280;29726;53.532;-1.478;2023-04-08T05:24:02;101526.41;;;10.90;85.55
24666;BME280;29726;53.532;-1.478;2023-04-08T05:26:46;101523.72;;;10.87;85.28
24666;BME280;29726;53.532;-1.478;2023-04-08T05:29:31;101529.44;;;10.83;85.45
24666;BME280;29726;53.532;-1.478;2023-04-08T05:32:15;101536.25;;;10.82;85.53
24666;BME280;29726;53.532;-1.478;2023-04-08T05:35:02;101535.53;;;10.78;85.27
24666;BME280;29726;53.532;-1.478;2023-04-08T05:37:46;101537.66;;;10.74;85.03
24666;BME280;29726;53.532;-1.478;2023-04-08T05:40:30;101521.34;;;10.60;85.29
24666;BME280;29726;53.532;-1.478;2023-04-08T05:43:14;101515.81;;;10.44;85.04
24666;BME280;29726;53.532;-1.478;2023-04-08T05:45:59;101509.53;;;10.40;84.85
24666;BME280;29726;53.532;-1.478;2023-04-08T05:48:43;101545.56;;;10.63;85.57
24666;BME280;29726;53.532;-1.478;2023-04-08T05:51:27;101547.22;;;10.61;85.71
24666;BME280;29726;53.532;-1.478;2023-04-08T05:54:11;101537.84;;;10.55;85.62
24666;BME280;29726;53.532;-1.478;2023-04-08T05:56:55;101554.50;;;10.58;85.73
24666;BME280;29726;53.532;-1.478;2023-04-08T05:59:39;101533.56;;;10.50;85.89
24666;BME280;29726;53.532;-1.478;2023-04-08T06:02:23;101535.94;;;10.52;86.17
24666;BME280;29726;53.532;-1.478;2023-04-08T06:05:08;101541.84;;;10.54;86.54
24666;BME280;29726;53.532;-1.478;2023-04-08T06:07:52;101552.56;;;10.55;87.06
24666;BME280;29726;53.532;-1.478;2023-04-08T06:10:36;101551.38;;;10.56;87.46
24666;BME280;29726;53.532;-1.478;2023-04-08T06:13:20;101550.16;;;10.57;87.99
24666;BME280;29726;53.532;-1.478;2023-04-08T06:16:15;101560.44;;;10.60;87.84
24666;BME280;29726;53.532;-1.478;2023-04-08T06:19:02;101556.06;;;10.59;88.21
24666;BME280;29726;53.532;-1.478;2023-04-08T06:21:46;101554.84;;;10.60;88.34
24666;BME280;29726;53.532;-1.478;2023-04-08T06:24:30;101546.66;;;10.53;88.19
24666;BME280;29726;53.532;-1.478;2023-04-08T06:27:14;101550.91;;;10.58;88.43
24666;BME280;29726;53.532;-1.478;2023-04-08T06:29:58;101559.19;;;10.61;88.18
24666;BME280;29726;53.532;-1.478;2023-04-08T06:32:42;101553.69;;;10.58;88.38
24666;BME280;29726;53.532;-1.478;2023-04-08T06:35:26;101552.81;;;10.61;88.77
24666;BME280;29726;53.532;-1.478;2023-04-08T06:38:10;101555.94;;;10.63;88.86
24666;BME280;29726;53.532;-1.478;2023-04-08T06:40:54;101562.34;;;10.63;89.07
24666;BME280;29726;53.532;-1.478;2023-04-08T06:43:39;101566.78;;;10.61;89.47
24666;BME280;29726;53.532;-1.478;2023-04-08T06:46:23;101559.88;;;10.65;89.92
24666;BME280;29726;53.532;-1.478;2023-04-08T06:49:08;101565.38;;;10.69;90.54
24666;BME280;29726;53.532;-1.478;2023-04-08T06:51:52;101566.94;;;10.70;90.71
24666;BME280;29726;53.532;-1.478;2023-04-08T06:54:36;101558.09;;;10.71;91.73
24666;BME280;29726;53.532;-1.478;2023-04-08T06:57:20;101563.25;;;10.73;92.00
24666;BME280;29726;53.532;-1.478;2023-04-08T07:00:04;101562.69;;;10.78;92.48
24666;BME280;29726;53.532;-1.478;2023-04-08T07:02:49;101538.13;;;10.73;93.88
24666;BME280;29726;53.532;-1.478;2023-04-08T07:05:36;101548.66;;;10.81;94.56
24666;BME280;29726;53.532;-1.478;2023-04-08T07:08:21;101542.94;;;10.85;95.05
24666;BME280;29726;53.532;-1.478;2023-04-08T07:11:05;101537.13;;;10.79;95.98
24666;BME280;29726;53.532;-1.478;2023-04-08T07:13:49;101536.91;;;10.86;96.61
24666;BME280;29726;53.532;-1.478;2023-04-08T07:16:33;101535.13;;;10.92;97.31
24666;BME280;29726;53.532;-1.478;2023-04-08T07:19:17;101539.81;;;10.95;97.87
24666;BME280;29726;53.532;-1.478;2023-04-08T07:22:01;101538.16;;;10.98;98.27
24666;BME280;29726;53.532;-1.478;2023-04-08T07:24:45;101532.44;;;11.01;98.77
24666;BME280;29726;53.532;-1.478;2023-04-08T07:27:33;101528.97;;;10.97;98.95
24666;BME280;29726;53.532;-1.478;2023-04-08T07:30:17;101534.59;;;11.10;99.57
24666;BME280;29726;53.532;-1.478;2023-04-08T07:33:01;101543.31;;;11.12;99.93
24666;BME280;29726;53.532;-1.478;2023-04-08T07:35:45;101534.06;;;11.15;99.98
24666;BME280;29726;53.532;-1.478;2023-04-08T07:38:29;101541.53;;;11.18;100.00
24666;BME280;29726;53.532;-1.478;2023-04-08T07:41:14;101494.34;;;10.95;100.00
24666;BME280;29726;53.532;-1.478;2023-04-08T07:43:58;101479.34;;;10.89;100.00
24666;BME280;29726;53.532;-1.478;2023-04-08T07:46:42;101533.69;;;11.25;100.00
24666;BME280;29726;53.532;-1.478;2023-04-08T07:49:28;101532.38;;;11.30;100.00
24666;BME280;29726;53.532;-1.478;2023-04-08T07:52:12;101533.81;;;11.34;100.00
24666;BME280;29726;53.532;-1.478;2023-04-08T07:54:56;101537.28;;;11.38;100.00
24666;BME280;29726;53.532;-1.478;2023-04-08T07:57:40;101535.16;;;11.42;100.00
24666;BME280;29726;53.532;-1.478;2023-04-08T08:00:24;101524.53;;;11.37;100.00
24666;BME280;29726;53.532;-1.478;2023-04-08T08:03:08;101504.97;;;11.25;100.00
24666;BME280;29726;53.532;-1.478;2023-04-08T08:05:52;101538.84;;;11.52;100.00
24666;BME280;29726;53.532;-1.478;2023-04-08T08:08:36;101536.38;;;11.53;100.00
24666;BME280;29726;53.532;-1.478;2023-04-08T08:11:20;101534.03;;;11.52;100.00
24666;BME280;29726;53.532;-1.478;2023-04-08T08:14:05;101548.16;;;11.61;100.00
24666;BME280;29726;53.532;-1.478;2023-04-08T08:16:48;101543.22;;;11.65;100.00
24666;BME280;29726;53.532;-1.478;2023-04-08T08:19:32;101555.06;;;11.69;100.00
24666;BME280;29726;53.532;-1.478;2023-04-08T08:22:16;101541.53;;;11.67;100.00
24666;BME280;29726;53.532;-1.478;2023-04-08T08:25:00;101552.06;;;11.76;100.00
24666;BME280;29726;53.532;-1.478;2023-04-08T08:27:44;101538.41;;;11.78;100.00
24666;BME280;29726;53.532;-1.478;2023-04-08T08:30:28;101532.47;;;11.76;100.00
24666;BME280;29726;53.532;-1.478;2023-04-08T08:33:12;101538.94;;;11.85;100.00
24666;BME280;29726;53.532;-1.478;2023-04-08T08:35:56;101513.09;;;11.69;100.00
24666;BME280;29726;53.532;-1.478;2023-04-08T08:38:43;101535.56;;;11.90;100.00
24666;BME280;29726;53.532;-1.478;2023-04-08T08:41:32;101543.94;;;12.03;100.00
24666;BME280;29726;53.532;-1.478;2023-04-08T08:44:18;101536.78;;;12.02;100.00
24666;BME280;29726;53.532;-1.478;2023-04-08T08:47:01;101529.78;;;12.06;100.00
24666;BME280;29726;53.532;-1.478;2023-04-08T08:49:46;101538.28;;;12.15;100.00
24666;BME280;29726;53.532;-1.478;2023-04-08T08:52:30;101539.75;;;12.20;100.00
24666;BME280;29726;53.532;-1.478;2023-04-08T08:55:17;101555.16;;;12.24;100.00
24666;BME280;29726;53.532;-1.478;2023-04-08T08:58:02;101567.81;;;12.29;100.00
24666;BME280;29726;53.532;-1.478;2023-04-08T09:00:46;101572.75;;;12.25;100.00
24666;BME280;29726;53.532;-1.478;2023-04-08T09:03:30;101603.03;;;12.39;100.00
24666;BME280;29726;53.532;-1.478;2023-04-08T09:06:17;101620.28;;;12.50;99.23
24666;BME280;29726;53.532;-1.478;2023-04-08T09:09:01;101625.63;;;12.57;97.68
24666;BME280;29726;53.532;-1.478;2023-04-08T09:11:47;101636.91;;;12.66;96.71
24666;BME280;29726;53.532;-1.478;2023-04-08T09:14:31;101638.97;;;12.74;96.30
24666;BME280;29726;53.532;-1.478;2023-04-08T09:17:30;101630.78;;;12.80;96.04
24666;BME280;29726;53.532;-1.478;2023-04-08T09:20:14;101636.47;;;12.89;95.75
24666;BME280;29726;53.532;-1.478;2023-04-08T09:23:00;101609.16;;;12.80;95.33
24666;BME280;29726;53.532;-1.478;2023-04-08T09:25:45;101572.13;;;12.64;95.38
24666;BME280;29726;53.532;-1.478;2023-04-08T09:28:29;101631.09;;;13.16;96.18
24666;BME280;29726;53.532;-1.478;2023-04-08T09:31:19;101635.22;;;13.32;96.05
24666;BME280;29726;53.532;-1.478;2023-04-08T09:34:11;101641.53;;;13.45;96.00
24666;BME280;29726;53.532;-1.478;2023-04-08T09:36:56;101647.06;;;13.58;96.00
24666;BME280;29726;53.532;-1.478;2023-04-08T09:39:40;101618.69;;;13.56;96.15
24666;BME280;29726;53.532;-1.478;2023-04-08T09:42:24;101632.81;;;13.83;96.36
24666;BME280;29726;53.532;-1.478;2023-04-08T09:45:09;101643.50;;;13.97;96.68
24666;BME280;29726;53.532;-1.478;2023-04-08T09:50:46;101633.28;;;14.21;97.06
24666;BME280;29726;53.532;-1.478;2023-04-08T09:53:45;101633.16;;;14.33;97.20
24666;BME280;29726;53.532;-1.478;2023-04-08T09:56:37;101631.91;;;14.43;97.46
24666;BME280;29726;53.532;-1.478;2023-04-08T09:59:26;101631.31;;;14.57;97.51
24666;BME280;29726;53.532;-1.478;2023-04-08T10:02:19;101641.91;;;14.71;97.63
24666;BME280;29726;53.532;-1.478;2023-04-08T10:05:05;101622.53;;;14.73;98.00
24666;BME280;29726;53.532;-1.478;2023-04-08T10:07:50;101628.66;;;14.90;98.18
24666;BME280;29726;53.532;-1.478;2023-04-08T10:10:35;101622.66;;;15.05;98.27
24666;BME280;29726;53.532;-1.478;2023-04-08T10:13:22;101635.63;;;15.21;98.51
24666;BME280;29726;53.532;-1.478;2023-04-08T10:16:19;101622.47;;;15.36;98.65
24666;BME280;29726;53.532;-1.478;2023-04-08T10:19:34;101617.16;;;15.47;98.85
24666;BME280;29726;53.532;-1.478;2023-04-08T10:22:45;101625.69;;;15.61;99.00
24666;BME280;29726;53.532;-1.478;2023-04-08T10:25:37;101624.38;;;15.71;99.09
24666;BME280;29726;53.532;-1.478;2023-04-08T10:28:24;101622.31;;;15.81;99.10
24666;BME280;29726;53.532;-1.478;2023-04-08T10:31:21;101609.13;;;15.87;99.08
24666;BME280;29726;53.532;-1.478;2023-04-08T10:34:22;101615.81;;;15.98;99.21
24666;BME280;29726;53.532;-1.478;2023-04-08T10:37:10;101616.53;;;16.08;99.26
24666;BME280;29726;53.532;-1.478;2023-04-08T10:39:53;101609.78;;;16.14;99.21
24666;BME280;29726;53.532;-1.478;2023-04-08T10:42:37;101603.00;;;16.21;99.44
24666;BME280;29726;53.532;-1.478;2023-04-08T10:45:21;101607.59;;;16.33;99.35
24666;BME280;29726;53.532;-1.478;2023-04-08T10:48:21;101611.19;;;16.42;99.34
24666;BME280;29726;53.532;-1.478;2023-04-08T10:51:07;101598.34;;;16.41;99.33
24666;BME280;29726;53.532;-1.478;2023-04-08T10:53:51;101602.47;;;16.55;99.73
24666;BME280;29726;53.532;-1.478;2023-04-08T10:56:35;101599.28;;;16.62;99.67
24666;BME280;29726;53.532;-1.478;2023-04-08T10:59:28;101597.66;;;16.70;99.88
24666;BME280;29726;53.532;-1.478;2023-04-08T11:02:13;101601.00;;;16.82;99.78
24666;BME280;29726;53.532;-1.478;2023-04-08T11:04:58;101570.03;;;16.73;99.81
24666;BME280;29726;53.532;-1.478;2023-04-08T11:07:42;101582.31;;;16.99;100.00
24666;BME280;29726;53.532;-1.478;2023-04-08T11:10:27;101585.75;;;17.18;100.00
24666;BME280;29726;53.532;-1.478;2023-04-08T11:13:12;101577.63;;;17.25;100.00
24666;BME280;29726;53.532;-1.478;2023-04-08T11:15:58;101591.00;;;17.39;100.00
24666;BME280;29726;53.532;-1.478;2023-04-08T11:18:42;101580.09;;;17.47;100.00
24666;BME280;29726;53.532;-1.478;2023-04-08T11:21:29;101577.25;;;17.61;100.00
24666;BME280;29726;53.532;-1.478;2023-04-08T11:24:14;101576.13;;;17.73;100.00
24666;BME280;29726;53.532;-1.478;2023-04-08T11:26:59;101573.19;;;17.82;100.00
24666;BME280;29726;53.532;-1.478;2023-04-08T11:29:43;101576.47;;;17.95;100.00
24666;BME280;29726;53.532;-1.478;2023-04-08T11:32:27;101569.41;;;18.05;100.00
24666;BME280;29726;53.532;-1.478;2023-04-08T11:35:15;101575.00;;;18.20;100.00
24666;BME280;29726;53.532;-1.478;2023-04-08T11:37:59;101571.47;;;18.25;100.00
24666;BME280;29726;53.532;-1.478;2023-04-08T11:40:56;101574.53;;;18.41;100.00
24666;BME280;29726;53.532;-1.478;2023-04-08T11:43:55;101561.81;;;18.51;100.00
24666;BME280;29726;53.532;-1.478;2023-04-08T11:46:40;101560.09;;;18.59;100.00
24666;BME280;29726;53.532;-1.478;2023-04-08T11:49:25;101559.97;;;18.68;100.00
24666;BME280;29726;53.532;-1.478;2023-04-08T11:52:09;101567.28;;;18.80;100.00
24666;BME280;29726;53.532;-1.478;2023-04-08T11:54:54;101560.41;;;18.86;100.00
24666;BME280;29726;53.532;-1.478;2023-04-08T11:57:38;101579.31;;;19.00;100.00
24666;BME280;29726;53.532;-1.478;2023-04-08T12:00:23;101579.44;;;19.11;100.00
24666;BME280;29726;53.532;-1.478;2023-04-08T12:03:07;101567.41;;;19.16;100.00
24666;BME280;29726;53.532;-1.478;2023-04-08T12:05:51;101576.00;;;19.27;100.00
24666;BME280;29726;53.532;-1.478;2023-04-08T12:08:35;101559.03;;;19.33;100.00
24666;BME280;29726;53.532;-1.478;2023-04-08T12:11:19;101573.03;;;19.42;100.00
24666;BME280;29726;53.532;-1.478;2023-04-08T12:14:03;101560.97;;;19.47;100.00
24666;BME280;29726;53.532;-1.478;2023-04-08T12:16:48;101556.16;;;19.58;100.00
24666;BME280;29726;53.532;-1.478;2023-04-08T12:19:32;101564.19;;;19.65;100.00
24666;BME280;29726;53.532;-1.478;2023-04-08T12:22:16;101563.00;;;19.77;100.00
24666;BME280;29726;53.532;-1.478;2023-04-08T12:25:00;101558.09;;;19.78;100.00
24666;BME280;29726;53.532;-1.478;2023-04-08T12:27:45;101565.13;;;19.93;100.00
24666;BME280;29726;53.532;-1.478;2023-04-08T12:30:29;101571.13;;;20.01;100.00
24666;BME280;29726;53.532;-1.478;2023-04-08T12:33:14;101565.78;;;20.08;100.00
24666;BME280;29726;53.532;-1.478;2023-04-08T12:35:59;101558.34;;;20.16;100.00
24666;BME280;29726;53.532;-1.478;2023-04-08T12:38:43;101550.88;;;20.19;100.00
24666;BME280;29726;53.532;-1.478;2023-04-08T12:41:27;101556.84;;;20.26;100.00
24666;BME280;29726;53.532;-1.478;2023-04-08T12:44:10;101552.22;;;20.34;100.00
24666;BME280;29726;53.532;-1.478;2023-04-08T12:46:55;101561.56;;;20.45;100.00
24666;BME280;29726;53.532;-1.478;2023-04-08T12:49:41;101555.13;;;20.50;100.00
24666;BME280;29726;53.532;-1.478;2023-04-08T12:52:25;101546.13;;;20.57;100.00
24666;BME280;29726;53.532;-1.478;2023-04-08T12:55:09;101556.22;;;20.69;100.00
24666;BME280;29726;53.532;-1.478;2023-04-08T12:57:54;101550.31;;;20.73;100.00
24666;BME280;29726;53.532;-1.478;2023-04-08T13:00:38;101551.63;;;20.83;100.00
24666;BME280;29726;53.532;-1.478;2023-04-08T13:03:22;101548.56;;;20.86;100.00
24666;BME280;29726;53.532;-1.478;2023-04-08T13:08:50;101544.97;;;20.97;99.66
24666;BME280;29726;53.532;-1.478;2023-04-08T13:11:34;101537.22;;;21.03;99.59
24666;BME280;29726;53.532;-1.478;2023-04-08T13:14:19;101557.13;;;21.14;98.64
24666;BME280;29726;53.532;-1.478;2023-04-08T13:17:03;101552.22;;;21.20;98.10
24666;BME280;29726;53.532;-1.478;2023-04-08T13:19:47;101552.97;;;21.26;97.99
24666;BME280;29726;53.532;-1.478;2023-04-08T13:22:33;101559.97;;;21.36;97.03
24666;BME280;29726;53.532;-1.478;2023-04-08T13:25:16;101551.94;;;21.40;97.34
24666;BME280;29726;53.532;-1.478;2023-04-08T13:28:00;101551.69;;;21.43;96.37
24666;BME280;29726;53.532;-1.478;2023-04-08T13:30:44;101555.81;;;21.53;96.81
24666;BME280;29726;53.532;-1.478;2023-04-08T13:33:29;101565.63;;;21.58;94.31
24666;BME280;29726;53.532;-1.478;2023-04-08T13:36:13;101566.66;;;21.60;93.83
24666;BME280;29726;53.532;-1.478;2023-04-08T13:38:57;101559.44;;;21.65;93.47
24666;BME280;29726;53.532;-1.478;2023-04-08T13:41:41;101549.09;;;21.67;94.43
24666;BME280;29726;53.532;-1.478;2023-04-08T13:44:25;101554.78;;;21.73;92.60
24666;BME280;29726;53.532;-1.478;2023-04-08T13:47:09;101561.25;;;21.73;91.68
24666;BME280;29726;53.532;-1.478;2023-04-08T13:49:52;101552.69;;;21.79;92.00
24666;BME280;29726;53.532;-1.478;2023-04-08T13:52:36;101549.84;;;21.84;91.86
24666;BME280;29726;53.532;-1.478;2023-04-08T13:55:20;101551.41;;;21.85;91.50
24666;BME280;29726;53.532;-1.478;2023-04-08T13:58:05;101547.00;;;21.84;90.28
24666;BME280;29726;53.532;-1.478;2023-04-08T14:00:49;101545.16;;;21.92;89.80
24666;BME280;29726;53.532;-1.478;2023-04-08T14:03:34;101550.34;;;21.99;91.05
24666;BME280;29726;53.532;-1.478;2023-04-08T14:06:18;101537.41;;;21.98;90.53
24666;BME280;29726;53.532;-1.478;2023-04-08T14:09:02;101551.34;;;22.07;91.01
24666;BME280;29726;53.532;-1.478;2023-04-08T14:11:46;101551.31;;;22.12;91.66
24666;BME280;29726;53.532;-1.478;2023-04-08T14:14:30;101537.84;;;22.13;89.77
24666;BME280;29726;53.532;-1.478;2023-04-08T14:17:14;101545.63;;;22.18;89.42
24666;BME280;29726;53.532;-1.478;2023-04-08T14:19:58;101540.69;;;22.18;89.21
24666;BME280;29726;53.532;-1.478;2023-04-08T14:22:43;101540.94;;;22.26;90.46